sensor_id;sensor_type;location;lat;lon;timestamp;pressure;altitude;pressure_sealevel;temperature;humidity
41230;BME280;26964;50.428;19.218;2024-03-17T00:00:27;1020.9;;;6.8;76.4
41230;BME280;26964;50.428;19.218;2024-03-17T00:01:28;1020.9;;;6.8;76.3
41230;BME280;26964;50.428;19.218;2024-03-17T00:02:28;1020.9;;;6.8;76.3
41230;BME280;26964;50.428;19.218;2024-03-17T00:03:27;1020.9;;;6.7;76.4
41230;BME280;26964;50.428;19.218;2024-03-17T00:04:28;1020.9;;;6.7;76.3
41230;BME280;26964;50.428;19.218;2024-03-17T00:05:27;1020.9;;;6.7;76.3
41230;BME280;26964;50.428;19.218;2024-03-17T00:06:29;1020.9;;;6.7;76.3
41230;BME280;26964;50.428;19.218;2024-03-17T00:07:27;1020.9;;;6.7;76.4
41230;BME280;26964;50.428;19.218;2024-03-17T00:08:27;1021.0;;;6.7;76.4
41230;BME280;26964;50.428;19.218;2024-03-17T00:09:27;1020.9;;;6.7;76.3
41230;BME280;26964;50.428;19.218;2024-03-17T00:10:27;1021.0;;;6.7;76.4
41230;BME280;26964;50.428;19.218;2024-03-17T00:11:27;1021.1;;;6.7;76.7
41230;BME280;26964;50.428;19.218;2024-03-17T00:12:28;1021.1;;;6.7;76.5
41230;BME280;26964;50.428;19.218;2024-03-17T00:13:28;1021.4;;;6.7;77.1
41230;BME280;26964;50.428;19.218;2024-03-17T00:14:27;1021.3;;;6.6;76.7
41230;BME280;26964;50.428;19.218;2024-03-17T00:15:27;1021.3;;;6.5;76.6
41230;BME280;26964;50.428;19.218;2024-03-17T00:16:27;1021.3;;;6.4;76.4
41230;BME280;26964;50.428;19.218;2024-03-17T00:17:27;1021.4;;;6.4;76.2
41230;BME280;26964;50.428;19.218;2024-03-17T00:18:27;1021.3;;;6.3;76.3
41230;BME280;26964;50.428;19.218;2024-03-17T00:19:27;1021.3;;;6.3;76.2
41230;BME280;26964;50.428;19.218;2024-03-17T00:20:27;1021.2;;;6.2;76.2
41230;BME280;26964;50.428;19.218;2024-03-17T00:21:28;1021.3;;;6.2;76.5
41230;BME280;26964;50.428;19.218;2024-03-17T00:22:27;1021.4;;;6.1;76.1
41230;BME280;26964;50.428;19.218;2024-03-17T00:23:28;1021.4;;;6.0;76.2
41230;BME280;26964;50.428;19.218;2024-03-17T00:24:28;1021.4;;;6.0;76.1
41230;BME280;26964;50.428;19.218;2024-03-17T00:25:27;1021.4;;;6.0;76.1
41230;BME280;26964;50.428;19.218;2024-03-17T00:26:27;1021.3;;;5.9;76.0
41230;BME280;26964;50.428;19.218;2024-03-17T00:27:29;1021.4;;;5.9;76.2
41230;BME280;26964;50.428;19.218;2024-03-17T00:28:27;1021.4;;;5.8;76.0
41230;BME280;26964;50.428;19.218;2024-03-17T00:29:27;1021.3;;;5.8;76.0
41230;BME280;26964;50.428;19.218;2024-03-17T00:30:27;1021.3;;;5.8;76.1
41230;BME280;26964;50.428;19.218;2024-03-17T00:31:28;1021.3;;;5.8;76.0
41230;BME280;26964;50.428;19.218;2024-03-17T00:32:28;1021.3;;;5.8;76.0
41230;BME280;26964;50.428;19.218;2024-03-17T00:33:27;1021.4;;;5.7;76.1
41230;BME280;26964;50.428;19.218;2024-03-17T00:34:27;1021.4;;;5.7;76.1
41230;BME280;26964;50.428;19.218;2024-03-17T00:35:27;1021.4;;;5.7;76.0
41230;BME280;26964;50.428;19.218;2024-03-17T00:36:28;1021.4;;;5.7;76.0
41230;BME280;26964;50.428;19.218;2024-03-17T00:37:28;1021.5;;;5.7;76.2
41230;BME280;26964;50.428;19.218;2024-03-17T00:38:27;1021.5;;;5.7;76.1
41230;BME280;26964;50.428;19.218;2024-03-17T00:39:27;1021.5;;;5.6;76.0
41230;BME280;26964;50.428;19.218;2024-03-17T00:40:27;1021.6;;;5.6;76.1
41230;BME280;26964;50.428;19.218;2024-03-17T00:41:28;1021.5;;;5.6;76.0
41230;BME280;26964;50.428;19.218;2024-03-17T00:42:27;1021.5;;;5.6;76.1
41230;BME280;26964;50.428;19.218;2024-03-17T00:43:28;1021.6;;;5.5;76.0
41230;BME280;26964;50.428;19.218;2024-03-17T00:44:27;1021.6;;;5.5;76.0
41230;BME280;26964;50.428;19.218;2024-03-17T00:45:27;1021.6;;;5.5;76.1
41230;BME280;26964;50.428;19.218;2024-03-17T00:46:28;1021.5;;;5.5;76.1
41230;BME280;26964;50.428;19.218;2024-03-17T00:47:28;1021.6;;;5.5;76.0
41230;BME280;26964;50.428;19.218;2024-03-17T00:48:29;1021.7;;;5.5;76.1
41230;BME280;26964;50.428;19.218;2024-03-17T00:49:28;1021.6;;;5.5;76.1
41230;BME280;26964;50.428;19.218;2024-03-17T00:50:27;1021.7;;;5.5;76.2
41230;BME280;26964;50.428;19.218;2024-03-17T00:51:27;1021.6;;;5.4;76.0
41230;BME280;26964;50.428;19.218;2024-03-17T00:52:28;1021.6;;;5.4;76.0
41230;BME280;26964;50.428;19.218;2024-03-17T00:53:27;1021.7;;;5.4;76.1
41230;BME280;26964;50.428;19.218;2024-03-17T00:54:28;1021.6;;;5.4;76.0
41230;BME280;26964;50.428;19.218;2024-03-17T00:55:27;1021.7;;;5.4;76.0
41230;BME280;26964;50.428;19.218;2024-03-17T00:56:27;1021.7;;;5.4;76.1
41230;BME280;26964;50.428;19.218;2024-03-17T00:57:27;1021.7;;;5.3;76.0
41230;BME280;26964;50.428;19.218;2024-03-17T00:58:27;1021.6;;;5.3;76.0
41230;BME280;26964;50.428;19.218;2024-03-17T00:59:27;1021.7;;;5.3;75.9
41230;BME280;26964;50.428;19.218;2024-03-17T01:00:27;1021.6;;;5.3;75.9
41230;BME280;26964;50.428;19.218;2024-03-17T01:01:28;1021.6;;;5.3;75.9
41230;BME280;26964;50.428;19.218;2024-03-17T01:02:27;1021.6;;;5.3;75.9
41230;BME280;26964;50.428;19.218;2024-03-17T01:03:27;1021.6;;;5.3;75.9
41230;BME280;26964;50.428;19.218;2024-03-17T01:04:28;1021.5;;;5.3;76.0
41230;BME280;26964;50.428;19.218;2024-03-17T01:05:27;1021.7;;;5.3;75.9
41230;BME280;26964;50.428;19.218;2024-03-17T01:06:28;1021.6;;;5.3;75.9
41230;BME280;26964;50.428;19.218;2024-03-17T01:07:27;1021.5;;;5.3;75.9
41230;BME280;26964;50.428;19.218;2024-03-17T01:08:27;1021.6;;;5.3;75.9
41230;BME280;26964;50.428;19.218;2024-03-17T01:09:29;1021.5;;;5.3;75.9
41230;BME280;26964;50.428;19.218;2024-03-17T01:10:28;1021.6;;;5.3;75.9
41230;BME280;26964;50.428;19.218;2024-03-17T01:11:28;1021.7;;;5.3;75.9
41230;BME280;26964;50.428;19.218;2024-03-17T01:12:27;1021.6;;;5.3;75.8
41230;BME280;26964;50.428;19.218;2024-03-17T01:13:28;1021.7;;;5.3;75.9
41230;BME280;26964;50.428;19.218;2024-03-17T01:14:28;1021.6;;;5.3;75.9
41230;BME280;26964;50.428;19.218;2024-03-17T01:15:27;1021.6;;;5.3;75.9
41230;BME280;26964;50.428;19.218;2024-03-17T01:16:28;1021.7;;;5.3;75.9
41230;BME280;26964;50.428;19.218;2024-03-17T01:17:28;1021.7;;;5.3;75.9
41230;BME280;26964;50.428;19.218;2024-03-17T01:18:27;1021.8;;;5.3;75.9
41230;BME280;26964;50.428;19.218;2024-03-17T01:19:28;1021.8;;;5.3;75.9
41230;BME280;26964;50.428;19.218;2024-03-17T01:20:27;1021.8;;;5.3;75.9
41230;BME280;26964;50.428;19.218;2024-03-17T01:21:27;1021.7;;;5.4;75.9
41230;BME280;26964;50.428;19.218;2024-03-17T01:22:27;1021.7;;;5.3;75.7
41230;BME280;26964;50.428;19.218;2024-03-17T01:23:27;1021.8;;;5.4;75.9
41230;BME280;26964;50.428;19.218;2024-03-17T01:24:27;1021.7;;;5.4;75.9
41230;BME280;26964;50.428;19.218;2024-03-17T01:25:28;1021.8;;;5.4;75.9
41230;BME280;26964;50.428;19.218;2024-03-17T01:26:27;1021.8;;;5.4;75.9
41230;BME280;26964;50.428;19.218;2024-03-17T01:27:28;1021.8;;;5.4;75.9
41230;BME280;26964;50.428;19.218;2024-03-17T01:28:27;1021.8;;;5.4;75.8
41230;BME280;26964;50.428;19.218;2024-03-17T01:29:27;1021.9;;;5.4;75.8
41230;BME280;26964;50.428;19.218;2024-03-17T01:30:30;1021.8;;;5.4;75.8
41230;BME280;26964;50.428;19.218;2024-03-17T01:31:28;1021.8;;;5.4;75.8
41230;BME280;26964;50.428;19.218;2024-03-17T01:32:27;1021.9;;;5.4;75.8
41230;BME280;26964;50.428;19.218;2024-03-17T01:33:27;1021.9;;;5.4;75.8
41230;BME280;26964;50.428;19.218;2024-03-17T01:34:27;1021.9;;;5.4;75.8
41230;BME280;26964;50.428;19.218;2024-03-17T01:35:27;1021.8;;;5.4;75.8
41230;BME280;26964;50.428;19.218;2024-03-17T01:36:27;1021.9;;;5.4;75.8
41230;BME280;26964;50.428;19.218;2024-03-17T01:37:28;1021.9;;;5.3;75.8
41230;BME280;26964;50.428;19.218;2024-03-17T01:38:27;1021.8;;;5.3;75.8
41230;BME280;26964;50.428;19.218;2024-03-17T01:39:27;1021.9;;;5.3;75.8
41230;BME280;26964;50.428;19.218;2024-03-17T01:40:27;1021.9;;;5.3;75.8
41230;BME280;26964;50.428;19.218;2024-03-17T01:41:27;1021.9;;;5.3;75.8
41230;BME280;26964;50.428;19.218;2024-03-17T01:42:27;1022.0;;;5.3;75.8
41230;BME280;26964;50.428;19.218;2024-03-17T01:43:27;1021.9;;;5.3;75.8
41230;BME280;26964;50.428;19.218;2024-03-17T01:44:28;1021.9;;;5.3;75.8
41230;BME280;26964;50.428;19.218;2024-03-17T01:45:28;1022.0;;;5.3;75.9
41230;BME280;26964;50.428;19.218;2024-03-17T01:46:27;1021.9;;;5.3;75.8
41230;BME280;26964;50.428;19.218;2024-03-17T01:47:27;1022.0;;;5.3;75.9
41230;BME280;26964;50.428;19.218;2024-03-17T01:48:28;1022.0;;;5.3;75.9
41230;BME280;26964;50.428;19.218;2024-03-17T01:49:27;1021.9;;;5.3;75.9
41230;BME280;26964;50.428;19.218;2024-03-17T01:50:31;1021.9;;;5.3;75.9
41230;BME280;26964;50.428;19.218;2024-03-17T01:51:30;1021.9;;;5.3;75.9
41230;BME280;26964;50.428;19.218;2024-03-17T01:52:27;1021.8;;;5.3;75.9
41230;BME280;26964;50.428;19.218;2024-03-17T01:53:27;1021.9;;;5.3;75.9
41230;BME280;26964;50.428;19.218;2024-03-17T01:54:27;1021.8;;;5.3;75.9
41230;BME280;26964;50.428;19.218;2024-03-17T01:55:27;1021.8;;;5.3;75.9
41230;BME280;26964;50.428;19.218;2024-03-17T01:56:27;1021.9;;;5.3;75.9
41230;BME280;26964;50.428;19.218;2024-03-17T01:57:27;1021.9;;;5.2;75.9
41230;BME280;26964;50.428;19.218;2024-03-17T01:58:27;1021.7;;;5.2;75.9
41230;BME280;26964;50.428;19.218;2024-03-17T01:59:27;1021.8;;;5.2;75.9
41230;BME280;26964;50.428;19.218;2024-03-17T02:00:27;1021.9;;;5.2;76.0
41230;BME280;26964;50.428;19.218;2024-03-17T02:01:27;1021.9;;;5.2;76.0
41230;BME280;26964;50.428;19.218;2024-03-17T02:02:27;1021.9;;;5.2;76.0
41230;BME280;26964;50.428;19.218;2024-03-17T02:03:27;1021.9;;;5.2;76.0
41230;BME280;26964;50.428;19.218;2024-03-17T02:04:27;1022.0;;;5.2;76.0
41230;BME280;26964;50.428;19.218;2024-03-17T02:05:27;1021.9;;;5.2;76.0
41230;BME280;26964;50.428;19.218;2024-03-17T02:06:27;1022.0;;;5.2;76.0
41230;BME280;26964;50.428;19.218;2024-03-17T02:07:27;1021.9;;;5.1;76.0
41230;BME280;26964;50.428;19.218;2024-03-17T02:08:27;1022.0;;;5.1;76.1
41230;BME280;26964;50.428;19.218;2024-03-17T02:09:27;1022.0;;;5.1;76.1
41230;BME280;26964;50.428;19.218;2024-03-17T02:10:28;1022.1;;;5.1;76.1
41230;BME280;26964;50.428;19.218;2024-03-17T02:11:30;1022.1;;;5.1;76.0
41230;BME280;26964;50.428;19.218;2024-03-17T02:12:32;1022.0;;;5.1;76.1
41230;BME280;26964;50.428;19.218;2024-03-17T02:13:27;1022.0;;;5.1;76.1
41230;BME280;26964;50.428;19.218;2024-03-17T02:14:27;1022.0;;;5.1;76.1
41230;BME280;26964;50.428;19.218;2024-03-17T02:15:28;1022.0;;;5.1;76.1
41230;BME280;26964;50.428;19.218;2024-03-17T02:16:27;1022.0;;;5.0;76.1
41230;BME280;26964;50.428;19.218;2024-03-17T02:17:27;1021.9;;;5.0;76.1
41230;BME280;26964;50.428;19.218;2024-03-17T02:18:26;1022.0;;;5.0;76.1
41230;BME280;26964;50.428;19.218;2024-03-17T02:19:27;1022.0;;;5.0;76.2
41230;BME280;26964;50.428;19.218;2024-03-17T02:20:27;1022.1;;;5.0;76.1
41230;BME280;26964;50.428;19.218;2024-03-17T02:21:27;1022.1;;;5.0;76.2
41230;BME280;26964;50.428;19.218;2024-03-17T02:22:27;1022.1;;;5.0;76.2
41230;BME280;26964;50.428;19.218;2024-03-17T02:23:27;1022.1;;;5.0;76.2
41230;BME280;26964;50.428;19.218;2024-03-17T02:24:27;1022.1;;;5.0;76.2
41230;BME280;26964;50.428;19.218;2024-03-17T02:25:27;1022.1;;;5.0;76.2
41230;BME280;26964;50.428;19.218;2024-03-17T02:26:27;1022.2;;;5.0;76.3
41230;BME280;26964;50.428;19.218;2024-03-17T02:27:27;1022.2;;;4.9;76.2
41230;BME280;26964;50.428;19.218;2024-03-17T02:28:27;1022.1;;;4.9;76.2
41230;BME280;26964;50.428;19.218;2024-03-17T02:29:27;1022.2;;;4.9;76.3
41230;BME280;26964;50.428;19.218;2024-03-17T02:30:27;1022.2;;;4.9;76.2
41230;BME280;26964;50.428;19.218;2024-03-17T02:31:27;1022.1;;;4.9;76.3
41230;BME280;26964;50.428;19.218;2024-03-17T02:32:27;1022.2;;;4.9;76.3
41230;BME280;26964;50.428;19.218;2024-03-17T02:33:32;1022.2;;;4.9;76.3
41230;BME280;26964;50.428;19.218;2024-03-17T02:34:27;1022.1;;;4.9;76.3
41230;BME280;26964;50.428;19.218;2024-03-17T02:35:27;1022.2;;;4.9;76.2
41230;BME280;26964;50.428;19.218;2024-03-17T02:36:26;1022.1;;;4.9;76.3
41230;BME280;26964;50.428;19.218;2024-03-17T02:37:26;1022.1;;;4.9;76.3
41230;BME280;26964;50.428;19.218;2024-03-17T02:38:27;1022.1;;;4.9;76.3
41230;BME280;26964;50.428;19.218;2024-03-17T02:39:27;1022.2;;;4.9;76.3
41230;BME280;26964;50.428;19.218;2024-03-17T02:40:27;1022.1;;;4.9;76.3
41230;BME280;26964;50.428;19.218;2024-03-17T02:41:27;1022.2;;;4.9;76.3
41230;BME280;26964;50.428;19.218;2024-03-17T02:42:27;1022.2;;;4.9;76.3
41230;BME280;26964;50.428;19.218;2024-03-17T02:43:27;1022.2;;;4.9;76.2
41230;BME280;26964;50.428;19.218;2024-03-17T02:44:26;1022.2;;;4.9;76.2
41230;BME280;26964;50.428;19.218;2024-03-17T02:45:27;1022.2;;;4.9;76.2
41230;BME280;26964;50.428;19.218;2024-03-17T02:46:27;1022.2;;;4.9;76.2
41230;BME280;26964;50.428;19.218;2024-03-17T02:47:27;1022.2;;;4.8;76.2
41230;BME280;26964;50.428;19.218;2024-03-17T02:48:27;1022.2;;;4.8;76.2
41230;BME280;26964;50.428;19.218;2024-03-17T02:49:28;1022.2;;;4.8;76.1
41230;BME280;26964;50.428;19.218;2024-03-17T02:50:27;1022.2;;;4.8;76.2
41230;BME280;26964;50.428;19.218;2024-03-17T02:51:27;1022.2;;;4.8;76.2
41230;BME280;26964;50.428;19.218;2024-03-17T02:52:26;1022.2;;;4.8;76.2
41230;BME280;26964;50.428;19.218;2024-03-17T02:53:27;1022.2;;;4.7;76.2
41230;BME280;26964;50.428;19.218;2024-03-17T02:54:27;1022.2;;;4.7;76.2
41230;BME280;26964;50.428;19.218;2024-03-17T02:55:27;1022.2;;;4.7;76.1
41230;BME280;26964;50.428;19.218;2024-03-17T02:56:28;1022.3;;;4.7;76.2
41230;BME280;26964;50.428;19.218;2024-03-17T02:57:27;1022.3;;;4.6;76.2
41230;BME280;26964;50.428;19.218;2024-03-17T02:58:27;1022.3;;;4.6;76.2
41230;BME280;26964;50.428;19.218;2024-03-17T02:59:27;1022.3;;;4.6;76.2
41230;BME280;26964;50.428;19.218;2024-03-17T03:00:27;1022.4;;;4.6;76.2
41230;BME280;26964;50.428;19.218;2024-03-17T03:01:27;1022.3;;;4.6;76.2
41230;BME280;26964;50.428;19.218;2024-03-17T03:02:27;1022.4;;;4.5;76.2
41230;BME280;26964;50.428;19.218;2024-03-17T03:03:26;1022.4;;;4.5;76.2
41230;BME280;26964;50.428;19.218;2024-03-17T03:04:27;1022.4;;;4.5;76.3
41230;BME280;26964;50.428;19.218;2024-03-17T03:05:27;1022.4;;;4.5;76.2
41230;BME280;26964;50.428;19.218;2024-03-17T03:06:27;1022.4;;;4.5;76.2
41230;BME280;26964;50.428;19.218;2024-03-17T03:07:27;1022.4;;;4.4;76.3
41230;BME280;26964;50.428;19.218;2024-03-17T03:08:27;1022.4;;;4.4;76.3
41230;BME280;26964;50.428;19.218;2024-03-17T03:09:27;1022.4;;;4.4;76.3
41230;BME280;26964;50.428;19.218;2024-03-17T03:10:27;1022.5;;;4.4;76.3
41230;BME280;26964;50.428;19.218;2024-03-17T03:11:27;1022.5;;;4.4;76.3
41230;BME280;26964;50.428;19.218;2024-03-17T03:12:27;1022.5;;;4.4;76.3
41230;BME280;26964;50.428;19.218;2024-03-17T03:13:27;1022.5;;;4.4;76.3
41230;BME280;26964;50.428;19.218;2024-03-17T03:14:28;1022.5;;;4.4;76.3
41230;BME280;26964;50.428;19.218;2024-03-17T03:15:30;1022.5;;;4.4;76.3
41230;BME280;26964;50.428;19.218;2024-03-17T03:16:27;1022.5;;;4.3;76.3
41230;BME280;26964;50.428;19.218;2024-03-17T03:17:27;1022.5;;;4.3;76.3
41230;BME280;26964;50.428;19.218;2024-03-17T03:18:27;1022.6;;;4.3;76.3
41230;BME280;26964;50.428;19.218;2024-03-17T03:19:27;1022.5;;;4.3;76.2
41230;BME280;26964;50.428;19.218;2024-03-17T03:20:27;1022.6;;;4.3;76.3
41230;BME280;26964;50.428;19.218;2024-03-17T03:21:27;1022.6;;;4.2;76.2
41230;BME280;26964;50.428;19.218;2024-03-17T03:22:27;1022.6;;;4.2;76.2
41230;BME280;26964;50.428;19.218;2024-03-17T03:23:27;1022.5;;;4.2;76.2
41230;BME280;26964;50.428;19.218;2024-03-17T03:24:27;1022.6;;;4.1;76.2
41230;BME280;26964;50.428;19.218;2024-03-17T03:25:27;1022.6;;;4.1;76.3
41230;BME280;26964;50.428;19.218;2024-03-17T03:26:27;1022.5;;;4.1;76.3
41230;BME280;26964;50.428;19.218;2024-03-17T03:27:27;1022.6;;;4.1;76.3
41230;BME280;26964;50.428;19.218;2024-03-17T03:28:27;1022.6;;;4.1;76.3
41230;BME280;26964;50.428;19.218;2024-03-17T03:29:27;1022.6;;;4.0;76.3
41230;BME280;26964;50.428;19.218;2024-03-17T03:30:27;1022.6;;;4.0;76.3
41230;BME280;26964;50.428;19.218;2024-03-17T03:31:27;1022.6;;;4.0;76.3
41230;BME280;26964;50.428;19.218;2024-03-17T03:32:27;1022.7;;;4.0;76.3
41230;BME280;26964;50.428;19.218;2024-03-17T03:33:28;1022.6;;;4.0;76.3
41230;BME280;26964;50.428;19.218;2024-03-17T03:34:27;1022.6;;;4.0;76.3
41230;BME280;26964;50.428;19.218;2024-03-17T03:35:29;1022.6;;;4.0;76.3
41230;BME280;26964;50.428;19.218;2024-03-17T03:36:27;1022.7;;;3.9;76.3
41230;BME280;26964;50.428;19.218;2024-03-17T03:37:27;1022.7;;;3.9;76.3
41230;BME280;26964;50.428;19.218;2024-03-17T03:38:27;1022.7;;;3.9;76.3
41230;BME280;26964;50.428;19.218;2024-03-17T03:39:27;1022.7;;;3.9;76.3
41230;BME280;26964;50.428;19.218;2024-03-17T03:40:26;1022.7;;;3.9;76.3
41230;BME280;26964;50.428;19.218;2024-03-17T03:41:26;1022.7;;;3.9;76.3
41230;BME280;26964;50.428;19.218;2024-03-17T03:42:27;1022.8;;;3.9;76.3
41230;BME280;26964;50.428;19.218;2024-03-17T03:43:27;1022.8;;;3.8;76.2
41230;BME280;26964;50.428;19.218;2024-03-17T03:44:27;1022.9;;;3.8;76.2
41230;BME280;26964;50.428;19.218;2024-03-17T03:45:27;1022.8;;;3.8;76.2
41230;BME280;26964;50.428;19.218;2024-03-17T03:46:27;1022.8;;;3.8;76.2
41230;BME280;26964;50.428;19.218;2024-03-17T03:47:28;1022.8;;;3.8;76.2
41230;BME280;26964;50.428;19.218;2024-03-17T03:48:27;1022.8;;;3.7;76.2
41230;BME280;26964;50.428;19.218;2024-03-17T03:49:27;1022.8;;;3.7;76.2
41230;BME280;26964;50.428;19.218;2024-03-17T03:50:27;1022.9;;;3.7;76.3
41230;BME280;26964;50.428;19.218;2024-03-17T03:51:27;1022.9;;;3.7;76.2
41230;BME280;26964;50.428;19.218;2024-03-17T03:52:26;1022.9;;;3.7;76.3
41230;BME280;26964;50.428;19.218;2024-03-17T03:53:27;1023.0;;;3.7;76.3
41230;BME280;26964;50.428;19.218;2024-03-17T03:54:27;1022.9;;;3.6;76.2
41230;BME280;26964;50.428;19.218;2024-03-17T03:55:27;1022.9;;;3.6;76.2
41230;BME280;26964;50.428;19.218;2024-03-17T03:56:28;1022.9;;;3.6;76.2
41230;BME280;26964;50.428;19.218;2024-03-17T03:57:30;1022.9;;;3.6;76.2
41230;BME280;26964;50.428;19.218;2024-03-17T03:58:27;1022.9;;;3.6;76.2
41230;BME280;26964;50.428;19.218;2024-03-17T03:59:26;1023.0;;;3.6;76.2
41230;BME280;26964;50.428;19.218;2024-03-17T04:00:27;1023.0;;;3.5;76.2
41230;BME280;26964;50.428;19.218;2024-03-17T04:01:27;1023.0;;;3.5;76.2
41230;BME280;26964;50.428;19.218;2024-03-17T04:02:27;1023.0;;;3.5;76.2
41230;BME280;26964;50.428;19.218;2024-03-17T04:03:26;1023.0;;;3.5;76.2
41230;BME280;26964;50.428;19.218;2024-03-17T04:04:27;1022.9;;;3.5;76.2
41230;BME280;26964;50.428;19.218;2024-03-17T04:05:27;1023.0;;;3.5;76.2
41230;BME280;26964;50.428;19.218;2024-03-17T04:06:27;1023.0;;;3.4;76.2
41230;BME280;26964;50.428;19.218;2024-03-17T04:07:27;1023.0;;;3.4;76.2
41230;BME280;26964;50.428;19.218;2024-03-17T04:08:27;1023.1;;;3.4;76.2
41230;BME280;26964;50.428;19.218;2024-03-17T04:09:27;1023.0;;;3.4;76.2
41230;BME280;26964;50.428;19.218;2024-03-17T04:10:26;1023.0;;;3.4;76.1
41230;BME280;26964;50.428;19.218;2024-03-17T04:11:27;1023.0;;;3.3;76.1
41230;BME280;26964;50.428;19.218;2024-03-17T04:12:27;1023.1;;;3.3;76.1
41230;BME280;26964;50.428;19.218;2024-03-17T04:13:27;1023.0;;;3.3;76.1
41230;BME280;26964;50.428;19.218;2024-03-17T04:14:26;1023.1;;;3.3;76.1
41230;BME280;26964;50.428;19.218;2024-03-17T04:15:27;1023.1;;;3.3;76.2
41230;BME280;26964;50.428;19.218;2024-03-17T04:16:29;1023.1;;;3.2;76.2
41230;BME280;26964;50.428;19.218;2024-03-17T04:17:28;1023.1;;;3.2;76.2
41230;BME280;26964;50.428;19.218;2024-03-17T04:18:28;1023.1;;;3.2;76.2
41230;BME280;26964;50.428;19.218;2024-03-17T04:19:27;1023.2;;;3.2;76.2
41230;BME280;26964;50.428;19.218;2024-03-17T04:20:27;1023.1;;;3.2;76.2
41230;BME280;26964;50.428;19.218;2024-03-17T04:21:27;1023.1;;;3.2;76.2
41230;BME280;26964;50.428;19.218;2024-03-17T04:22:27;1023.1;;;3.2;76.2
41230;BME280;26964;50.428;19.218;2024-03-17T04:23:27;1023.1;;;3.1;76.1
41230;BME280;26964;50.428;19.218;2024-03-17T04:24:27;1023.2;;;3.1;76.1
41230;BME280;26964;50.428;19.218;2024-03-17T04:25:26;1023.1;;;3.1;76.1
41230;BME280;26964;50.428;19.218;2024-03-17T04:26:27;1023.2;;;3.1;76.1
41230;BME280;26964;50.428;19.218;2024-03-17T04:27:26;1023.2;;;3.0;76.2
41230;BME280;26964;50.428;19.218;2024-03-17T04:28:27;1023.1;;;3.0;76.1
41230;BME280;26964;50.428;19.218;2024-03-17T04:29:27;1023.2;;;3.0;76.1
41230;BME280;26964;50.428;19.218;2024-03-17T04:30:27;1023.2;;;3.0;76.1
41230;BME280;26964;50.428;19.218;2024-03-17T04:31:27;1023.2;;;3.0;76.1
41230;BME280;26964;50.428;19.218;2024-03-17T04:32:26;1023.2;;;3.0;76.1
41230;BME280;26964;50.428;19.218;2024-03-17T04:33:27;1023.3;;;2.9;76.1
41230;BME280;26964;50.428;19.218;2024-03-17T04:34:27;1023.3;;;2.9;76.1
41230;BME280;26964;50.428;19.218;2024-03-17T04:35:27;1023.2;;;2.9;76.1
41230;BME280;26964;50.428;19.218;2024-03-17T04:36:26;1023.3;;;2.9;76.2
41230;BME280;26964;50.428;19.218;2024-03-17T04:37:28;1023.3;;;2.9;76.2
41230;BME280;26964;50.428;19.218;2024-03-17T04:38:29;1023.3;;;2.9;76.1
41230;BME280;26964;50.428;19.218;2024-03-17T04:39:27;1023.4;;;2.8;76.1
41230;BME280;26964;50.428;19.218;2024-03-17T04:40:27;1023.3;;;2.8;76.1
41230;BME280;26964;50.428;19.218;2024-03-17T04:41:27;1023.3;;;2.8;76.1
41230;BME280;26964;50.428;19.218;2024-03-17T04:42:27;1023.3;;;2.8;76.1
41230;BME280;26964;50.428;19.218;2024-03-17T04:43:27;1023.3;;;2.8;76.1
41230;BME280;26964;50.428;19.218;2024-03-17T04:44:28;1023.3;;;2.7;76.1
41230;BME280;26964;50.428;19.218;2024-03-17T04:45:27;1023.4;;;2.7;76.2
41230;BME280;26964;50.428;19.218;2024-03-17T04:46:27;1023.4;;;2.7;76.2
41230;BME280;26964;50.428;19.218;2024-03-17T04:47:26;1023.4;;;2.7;76.2
41230;BME280;26964;50.428;19.218;2024-03-17T04:48:27;1023.3;;;2.7;76.1
41230;BME280;26964;50.428;19.218;2024-03-17T04:49:27;1023.4;;;2.7;76.1
41230;BME280;26964;50.428;19.218;2024-03-17T04:50:27;1023.4;;;2.7;76.1
41230;BME280;26964;50.428;19.218;2024-03-17T04:51:27;1023.4;;;2.7;76.2
41230;BME280;26964;50.428;19.218;2024-03-17T04:52:27;1023.3;;;2.6;76.1
41230;BME280;26964;50.428;19.218;2024-03-17T04:53:27;1023.4;;;2.6;76.1
41230;BME280;26964;50.428;19.218;2024-03-17T04:54:26;1023.4;;;2.6;76.1
41230;BME280;26964;50.428;19.218;2024-03-17T04:55:26;1023.4;;;2.6;76.1
41230;BME280;26964;50.428;19.218;2024-03-17T04:56:27;1023.4;;;2.6;76.1
41230;BME280;26964;50.428;19.218;2024-03-17T04:57:27;1023.4;;;2.6;76.1
41230;BME280;26964;50.428;19.218;2024-03-17T04:58:26;1023.4;;;2.5;76.1
41230;BME280;26964;50.428;19.218;2024-03-17T04:59:29;1023.4;;;2.5;76.1
41230;BME280;26964;50.428;19.218;2024-03-17T05:00:26;1023.3;;;2.5;76.1
41230;BME280;26964;50.428;19.218;2024-03-17T05:01:27;1023.5;;;2.5;76.0
41230;BME280;26964;50.428;19.218;2024-03-17T05:02:27;1023.4;;;2.5;76.0
41230;BME280;26964;50.428;19.218;2024-03-17T05:03:27;1023.4;;;2.5;76.1
41230;BME280;26964;50.428;19.218;2024-03-17T05:04:28;1023.4;;;2.4;76.1
41230;BME280;26964;50.428;19.218;2024-03-17T05:05:27;1023.5;;;2.4;76.1
41230;BME280;26964;50.428;19.218;2024-03-17T05:06:27;1023.4;;;2.4;76.1
41230;BME280;26964;50.428;19.218;2024-03-17T05:07:27;1023.4;;;2.4;76.2
41230;BME280;26964;50.428;19.218;2024-03-17T05:08:27;1023.4;;;2.4;76.1
41230;BME280;26964;50.428;19.218;2024-03-17T05:09:27;1023.4;;;2.4;76.1
41230;BME280;26964;50.428;19.218;2024-03-17T05:10:27;1023.5;;;2.3;76.1
41230;BME280;26964;50.428;19.218;2024-03-17T05:11:27;1023.5;;;2.3;76.1
41230;BME280;26964;50.428;19.218;2024-03-17T05:12:27;1023.5;;;2.3;76.1
41230;BME280;26964;50.428;19.218;2024-03-17T05:13:26;1023.5;;;2.3;76.1
41230;BME280;26964;50.428;19.218;2024-03-17T05:14:26;1023.5;;;2.3;76.1
41230;BME280;26964;50.428;19.218;2024-03-17T05:15:27;1023.5;;;2.3;76.1
41230;BME280;26964;50.428;19.218;2024-03-17T05:16:26;1023.5;;;2.3;76.1
41230;BME280;26964;50.428;19.218;2024-03-17T05:17:26;1023.4;;;2.3;76.1
41230;BME280;26964;50.428;19.218;2024-03-17T05:18:26;1023.5;;;2.2;76.1
41230;BME280;26964;50.428;19.218;2024-03-17T05:19:27;1023.5;;;2.2;76.1
41230;BME280;26964;50.428;19.218;2024-03-17T05:20:29;1023.6;;;2.2;76.1
41230;BME280;26964;50.428;19.218;2024-03-17T05:21:26;1023.5;;;2.2;76.1
41230;BME280;26964;50.428;19.218;2024-03-17T05:22:27;1023.5;;;2.2;76.1
41230;BME280;26964;50.428;19.218;2024-03-17T05:23:27;1023.4;;;2.2;76.1
41230;BME280;26964;50.428;19.218;2024-03-17T05:24:27;1023.5;;;2.3;76.1
41230;BME280;26964;50.428;19.218;2024-03-17T05:25:27;1023.6;;;2.2;76.1
41230;BME280;26964;50.428;19.218;2024-03-17T05:26:26;1023.6;;;2.2;76.1
41230;BME280;26964;50.428;19.218;2024-03-17T05:27:27;1023.5;;;2.2;76.1
41230;BME280;26964;50.428;19.218;2024-03-17T05:28:28;1023.6;;;2.2;76.1
41230;BME280;26964;50.428;19.218;2024-03-17T05:29:27;1023.6;;;2.2;76.1
41230;BME280;26964;50.428;19.218;2024-03-17T05:30:27;1023.6;;;2.2;76.1
41230;BME280;26964;50.428;19.218;2024-03-17T05:31:26;1023.6;;;2.2;76.1
41230;BME280;26964;50.428;19.218;2024-03-17T05:32:27;1023.6;;;2.2;76.1
41230;BME280;26964;50.428;19.218;2024-03-17T05:33:26;1023.5;;;2.2;76.0
41230;BME280;26964;50.428;19.218;2024-03-17T05:34:27;1023.6;;;2.2;76.1
41230;BME280;26964;50.428;19.218;2024-03-17T05:35:27;1023.7;;;2.2;76.1